Time;durP1;ratioP1;P1;durP2;ratioP2;P2;SDS_P1;SDS_P2;PMS_P1;PMS_P2;Temp;Humidity;BMP_temperature;BMP_pressure;BME280_temperature;BME280_humidity;BME280_pressure;Samples;Min_cycle;Max_cycle;Signal;HPM_P1;HPM_P2
2021/11/24 00:01:56;;;;;;;11.03;9.93;;;;;;;3.19;84.38;96303.25;5042427;28;20227;-70
2021/11/24 00:04:24;;;;;;;11.33;9.63;;;;;;;3.11;84.42;96307.31;5038493;28;20254;-70
2021/11/24 00:06:52;;;;;;;10.63;9.63;;;;;;;2.99;84.42;96302.22;5042708;28;20278;-70
2021/11/24 00:09:20;;;;;;;13.77;10.30;;;;;;;2.96;85.14;96298.09;5036363;28;20218;-70
2021/11/24 00:11:48;;;;;;;8.93;8.03;;;;;;;2.95;85.45;96300.81;5046004;28;20223;-70
2021/11/24 00:14:18;;;;;;;12.00;9.63;;;;;;;2.97;85.75;96294.53;5032682;28;20223;-70
2021/11/24 00:16:46;;;;;;;11.67;10.57;;;;;;;2.94;85.78;96294.78;5043151;28;20219;-70
2021/11/24 00:19:15;;;;;;;9.33;8.40;;;;;;;3.01;85.45;96289.88;5039745;28;20219;-70
2021/11/24 00:21:43;;;;;;;9.00;8.30;;;;;;;2.98;85.43;96295.34;5035291;28;20219;-70
2021/11/24 00:24:11;;;;;;;10.97;9.37;;;;;;;2.95;84.94;96291.22;5045995;28;20784;-70
2021/11/24 00:26:39;;;;;;;9.20;8.40;;;;;;;2.95;84.73;96291.22;5036487;28;20332;-70
2021/11/24 00:29:07;;;;;;;9.07;8.27;;;;;;;2.93;84.84;96292.31;5035270;28;20223;-70
2021/11/24 00:31:36;;;;;;;8.83;8.03;;;;;;;2.80;83.98;96290.63;5041618;28;20792;-70
2021/11/24 00:34:05;;;;;;;9.60;8.80;;;;;;;2.88;84.45;96289.22;5028111;28;20234;-70
2021/11/24 00:36:32;;;;;;;12.27;10.13;;;;;;;2.81;84.42;96289.69;5042440;28;20803;-71
2021/11/24 00:39:01;;;;;;;10.40;9.50;;;;;;;2.82;84.42;96285.31;5029044;28;20223;-70
2021/11/24 00:41:29;;;;;;;9.70;8.73;;;;;;;2.77;84.38;96282.25;5028746;28;20739;-70
2021/11/24 00:43:57;;;;;;;9.73;8.73;;;;;;;2.70;84.06;96284.50;5028777;28;20822;-70
2021/11/24 00:46:25;;;;;;;8.27;7.47;;;;;;;2.71;84.37;96278.34;5031331;28;20722;-71
2021/11/24 00:48:55;;;;;;;10.37;7.97;;;;;;;2.73;85.07;96276.44;5035029;28;20353;-70
2021/11/24 00:51:23;;;;;;;7.97;7.23;;;;;;;2.77;84.17;96274.44;5023973;28;20277;-70
2021/11/24 00:53:51;;;;;;;11.27;9.23;;;;;;;2.76;83.43;96270.16;5002983;28;20726;-70
2021/11/24 00:56:19;;;;;;;10.90;8.13;;;;;;;2.71;83.81;96272.28;5027563;28;20648;-70
2021/11/24 00:58:47;;;;;;;11.30;9.80;;;;;;;2.60;84.90;96270.53;5035941;28;20275;-70
2021/11/24 01:01:15;;;;;;;10.63;9.60;;;;;;;2.63;84.12;96275.50;5037839;28;20562;-70
2021/11/24 01:03:44;;;;;;;9.20;8.30;;;;;;;2.64;85.18;96276.31;5033121;28;20224;-70
2021/11/24 01:06:13;;;;;;;11.50;9.20;;;;;;;2.66;84.68;96275.28;5037765;28;20722;-70
2021/11/24 01:08:41;;;;;;;9.37;8.60;;;;;;;2.62;84.23;96280.84;5039947;28;20219;-71
2021/11/24 01:11:09;;;;;;;10.30;9.37;;;;;;;2.62;84.49;96279.06;5042899;28;20442;-70
2021/11/24 01:13:37;;;;;;;11.50;9.10;;;;;;;2.58;84.29;96282.03;5034308;28;20214;-70
2021/11/24 01:16:06;;;;;;;9.70;8.30;;;;;;;2.53;84.72;96278.00;5034077;28;20531;-70
2021/11/24 01:18:35;;;;;;;9.37;8.53;;;;;;;2.44;84.79;96278.69;5038585;28;20224;-70
2021/11/24 01:21:03;;;;;;;11.90;9.63;;;;;;;2.49;85.38;96276.59;5056309;28;20860;-70
2021/11/24 01:23:33;;;;;;;10.23;9.33;;;;;;;2.48;84.24;96272.31;5043398;28;20252;-70
2021/11/24 01:26:01;;;;;;;9.37;8.40;;;;;;;2.42;84.95;96272.78;5039277;28;20702;-70
2021/11/24 01:28:29;;;;;;;10.97;8.93;;;;;;;2.44;84.39;96276.09;5032023;28;20300;-70
2021/11/24 01:30:57;;;;;;;12.10;10.97;;;;;;;2.47;84.60;96275.88;5031316;28;20225;-70
2021/11/24 01:33:26;;;;;;;8.53;7.77;;;;;;;2.29;84.18;96269.50;5036450;28;20219;-70
2021/11/24 01:35:54;;;;;;;8.70;8.03;;;;;;;2.23;84.45;96262.97;5036684;28;20276;-70
2021/11/24 01:38:22;;;;;;;11.60;10.23;;;;;;;2.08;84.71;96268.50;5031985;28;20282;-70
2021/11/24 01:40:52;;;;;;;11.57;9.93;;;;;;;2.04;84.70;96261.88;5044954;28;20214;-70
2021/11/24 01:43:20;;;;;;;14.77;9.90;;;;;;;1.93;85.19;96271.34;5040946;28;20288;-70
2021/11/24 01:45:48;;;;;;;10.40;7.90;;;;;;;1.88;85.91;96268.25;5031384;28;20258;-70
2021/11/24 01:48:16;;;;;;;10.07;9.07;;;;;;;1.78;84.81;96264.69;5034695;28;20230;-70
2021/11/24 01:50:44;;;;;;;8.53;7.77;;;;;;;1.77;84.77;96263.03;5040535;28;20639;-70
2021/11/24 01:53:12;;;;;;;9.67;8.77;;;;;;;1.64;84.34;96255.28;5028977;28;20308;-69
2021/11/24 01:55:40;;;;;;;8.20;7.50;;;;;;;1.62;85.15;96256.34;5035079;28;20759;-70
2021/11/24 01:58:10;;;;;;;8.60;7.80;;;;;;;1.45;85.19;96252.41;5022772;28;20243;-70
2021/11/24 02:00:39;;;;;;;11.20;10.30;;;;;;;1.37;85.38;96257.34;5029146;28;20225;-70
2021/11/24 02:03:07;;;;;;;9.00;8.10;;;;;;;1.31;85.11;96247.41;5039565;28;20309;-70
2021/11/24 02:05:35;;;;;;;8.33;7.60;;;;;;;1.29;85.43;96246.69;5026100;28;20698;-70
2021/11/24 02:08:03;;;;;;;10.37;8.83;;;;;;;1.18;85.83;96244.84;5048225;28;20271;-70
2021/11/24 02:10:32;;;;;;;7.80;7.10;;;;;;;1.12;86.27;96234.94;5026939;28;20229;-70
2021/11/24 02:13:00;;;;;;;9.27;8.30;;;;;;;1.08;86.30;96233.47;5022846;28;20702;-70
2021/11/24 02:15:30;;;;;;;8.70;7.80;;;;;;;1.04;85.96;96232.06;5025323;28;20331;-70
2021/11/24 02:18:02;;;;;;;9.80;8.93;;;;;;;1.01;86.40;96232.28;5031948;28;20295;-70
2021/11/24 02:20:40;;;;;;;10.63;8.40;;;;;;;0.96;86.52;96229.19;5024385;28;20233;-70
2021/11/24 02:23:10;;;;;;;12.37;8.67;;;;;;;0.96;86.31;96232.59;5027413;28;20244;-69
2021/11/24 02:25:39;;;;;;;10.93;9.23;;;;;;;0.97;86.58;96233.44;5029768;28;20264;-70
2021/11/24 02:28:07;;;;;;;18.03;11.63;;;;;;;0.97;86.45;96223.88;5035459;28;20221;-70
2021/11/24 02:30:36;;;;;;;11.20;9.93;;;;;;;1.04;86.26;96229.44;5028814;28;20313;-70
2021/11/24 02:33:05;;;;;;;9.90;8.90;;;;;;;0.99;86.81;96221.16;5043977;28;20281;-70
2021/11/24 02:35:33;;;;;;;10.20;9.13;;;;;;;1.00;86.76;96228.00;5031637;28;20264;-69
2021/11/24 02:38:04;;;;;;;10.43;9.47;;;;;;;1.00;86.92;96217.59;5031704;28;20242;-70
2021/11/24 02:40:33;;;;;;;12.70;11.10;;;;;;;1.03;87.41;96212.22;5035051;28;20282;-70
2021/11/24 02:43:01;;;;;;;11.03;9.70;;;;;;;1.10;87.06;96209.06;5038414;28;20498;-70
2021/11/24 02:45:29;;;;;;;11.27;10.17;;;;;;;1.15;86.47;96200.91;5035452;28;20725;-70
2021/11/24 02:47:58;;;;;;;11.53;10.27;;;;;;;1.22;87.27;96203.88;5040009;28;20215;-70
2021/11/24 02:50:26;;;;;;;12.83;11.47;;;;;;;1.26;87.35;96198.34;5047017;28;20224;-70
2021/11/24 02:52:54;;;;;;;16.33;10.73;;;;;;;1.32;86.74;96197.88;5044637;28;20244;-70
2021/11/24 02:55:24;;;;;;;11.50;10.40;;;;;;;1.37;87.83;96190.59;5042538;28;20293;-70
2021/11/24 02:57:54;;;;;;;14.03;12.17;;;;;;;1.48;86.95;96186.34;5043827;28;20301;-70
2021/11/24 03:00:25;;;;;;;15.93;12.43;;;;;;;1.49;86.99;96183.63;5030639;28;20218;-70
2021/11/24 03:02:53;;;;;;;20.27;13.83;;;;;;;1.53;86.89;96184.22;5029315;28;20446;-70
2021/11/24 03:05:23;;;;;;;16.07;12.63;;;;;;;1.56;86.97;96176.19;5034321;28;20491;-71
2021/11/24 03:07:55;;;;;;;13.47;11.77;;;;;;;1.64;87.08;96174.66;5029320;28;20228;-70
2021/11/24 03:10:25;;;;;;;17.00;12.63;;;;;;;1.61;86.91;96177.50;5031376;28;20295;-70
2021/11/24 03:12:53;;;;;;;15.93;13.63;;;;;;;1.62;87.29;96167.91;5032529;28;20309;-70
2021/11/24 03:15:21;;;;;;;16.70;11.53;;;;;;;1.66;85.88;96174.56;5035699;28;20228;-70
2021/11/24 03:17:49;;;;;;;14.70;12.80;;;;;;;1.65;86.50;96162.50;5026935;28;20218;-70
2021/11/24 03:20:18;;;;;;;19.27;14.30;;;;;;;1.74;86.49;96167.00;5030816;28;20234;-70
2021/11/24 03:22:45;;;;;;;17.53;14.13;;;;;;;1.69;87.06;96163.91;5046847;28;20244;-70
2021/11/24 03:25:14;;;;;;;16.50;14.17;;;;;;;1.68;86.32;96162.25;5045858;28;20653;-70
2021/11/24 03:27:44;;;;;;;18.60;15.03;;;;;;;1.79;86.09;96154.44;5032773;28;20721;-70
2021/11/24 03:30:15;;;;;;;14.50;13.00;;;;;;;1.80;86.78;96153.50;5030337;28;20623;-70
2021/11/24 03:32:44;;;;;;;16.07;12.50;;;;;;;1.85;86.14;96159.19;5026239;28;20311;-70
2021/11/24 03:35:13;;;;;;;18.27;16.23;;;;;;;1.93;86.52;96146.41;5033424;28;20239;-70
2021/11/24 03:37:41;;;;;;;15.57;13.07;;;;;;;1.96;85.35;96140.97;5037026;28;20246;-70
2021/11/24 03:40:12;;;;;;;18.73;16.83;;;;;;;1.97;86.34;96141.78;5027753;28;20230;-70
2021/11/24 03:42:41;;;;;;;19.23;15.43;;;;;;;1.93;86.23;96130.81;5026139;28;20827;-70
2021/11/24 03:45:12;;;;;;;23.87;15.73;;;;;;;1.92;86.03;96129.16;5029278;28;20649;-70
2021/11/24 03:47:41;;;;;;;17.70;13.70;;;;;;;1.90;86.65;96138.00;5028348;28;20257;-70
2021/11/24 03:50:11;;;;;;;17.33;13.93;;;;;;;1.92;86.24;96131.75;5039639;28;20232;-70
2021/11/24 03:52:39;;;;;;;18.10;15.00;;;;;;;1.91;86.39;96137.06;5036362;28;20229;-70
2021/11/24 03:55:10;;;;;;;13.17;10.63;;;;;;;1.93;86.04;96130.81;5042441;28;20302;-70
2021/11/24 03:57:39;;;;;;;14.50;12.10;;;;;;;1.88;86.63;96122.50;5036598;28;20700;-70
2021/11/24 04:00:09;;;;;;;17.03;13.23;;;;;;;1.92;85.96;96131.75;5036131;28;20699;-70
2021/11/24 04:02:38;;;;;;;18.90;14.00;;;;;;;1.99;86.02;96129.47;5030384;28;20221;-70
2021/11/24 04:05:09;;;;;;;17.43;14.70;;;;;;;2.06;86.44;96127.22;5044237;28;20220;-70
2021/11/24 04:07:37;;;;;;;18.87;15.17;;;;;;;2.04;85.63;96129.13;5040101;28;20286;-70
2021/11/24 04:10:06;;;;;;;19.27;14.50;;;;;;;2.06;85.86;96135.03;5052484;28;20216;-70
2021/11/24 04:12:37;;;;;;;20.30;16.17;;;;;;;2.09;86.06;96132.19;5033998;28;20257;-70
2021/11/24 04:15:06;;;;;;;15.33;13.73;;;;;;;2.05;86.62;96126.41;5036749;28;20407;-70
2021/11/24 04:17:34;;;;;;;15.60;13.80;;;;;;;2.04;87.13;96123.94;5034410;28;20243;-70
2021/11/24 04:20:05;;;;;;;16.97;13.17;;;;;;;2.06;86.48;96122.03;5037542;28;20228;-71
2021/11/24 04:22:34;;;;;;;16.23;13.50;;;;;;;2.10;85.92;96123.44;5043086;28;20604;-70
2021/11/24 04:25:01;;;;;;;15.17;12.67;;;;;;;1.99;86.19;96125.09;5044577;28;20226;-70
2021/11/24 04:27:29;;;;;;;19.83;16.87;;;;;;;1.95;86.25;96121.09;5032283;28;20250;-71
2021/11/24 04:29:58;;;;;;;21.30;17.73;;;;;;;1.93;87.31;96119.56;5039237;28;20234;-71
2021/11/24 04:32:26;;;;;;;17.03;14.20;;;;;;;1.93;87.27;96125.59;5038564;28;20238;-70
2021/11/24 04:34:54;;;;;;;20.30;16.10;;;;;;;1.89;87.61;96123.34;5035025;28;20215;-70
2021/11/24 04:37:23;;;;;;;20.17;15.03;;;;;;;1.87;87.92;96126.06;5037065;28;20718;-70
2021/11/24 04:39:52;;;;;;;16.27;14.53;;;;;;;1.89;87.38;96111.16;5045677;28;20233;-70
2021/11/24 04:42:20;;;;;;;17.17;13.27;;;;;;;1.86;87.82;96118.38;5037650;28;20225;-70
2021/11/24 04:44:48;;;;;;;14.17;12.40;;;;;;;1.93;87.27;96120.41;5034000;28;20225;-70
2021/11/24 04:47:17;;;;;;;19.20;15.10;;;;;;;1.87;87.57;96110.44;5034236;28;20270;-70
2021/11/24 04:49:45;;;;;;;14.83;13.30;;;;;;;1.93;87.11;96120.41;5029005;28;20325;-70
2021/11/24 04:52:13;;;;;;;18.47;14.97;;;;;;;1.95;87.90;96113.28;5025702;28;20341;-70
2021/11/24 04:54:42;;;;;;;25.63;17.53;;;;;;;1.94;88.03;96106.44;5024227;28;20389;-70
2021/11/24 04:57:11;;;;;;;18.13;15.67;;;;;;;2.03;86.92;96115.28;5027807;28;20737;-71
2021/11/24 04:59:40;;;;;;;21.80;17.20;;;;;;;2.02;87.21;96116.25;5026012;28;20303;-70
2021/11/24 05:02:07;;;;;;;17.23;13.53;;;;;;;2.02;87.54;96105.00;5022482;28;22894;-70
2021/11/24 05:04:36;;;;;;;24.60;17.67;;;;;;;1.79;88.01;96107.63;5028408;28;20253;-70
2021/11/24 05:07:04;;;;;;;21.00;16.93;;;;;;;1.85;87.25;96107.16;5048495;28;20790;-70
2021/11/24 05:09:37;;;;;;;21.90;17.10;;;;;;;1.79;87.85;96107.63;5032855;28;20886;-70
2021/11/24 05:12:08;;;;;;;23.57;17.70;;;;;;;1.79;86.73;96107.63;5037808;28;20757;-71
2021/11/24 05:14:37;;;;;;;22.27;18.83;;;;;;;1.81;87.95;96105.72;5034577;28;20213;-70
2021/11/24 05:17:08;;;;;;;23.27;19.07;;;;;;;1.53;88.57;96101.00;5039178;28;20210;-70
2021/11/24 05:19:38;;;;;;;17.37;13.77;;;;;;;1.57;89.08;96094.63;5034567;28;20330;-70
2021/11/24 05:22:09;;;;;;;24.40;16.60;;;;;;;1.60;88.74;96097.81;5038174;28;20282;-70
2021/11/24 05:24:38;;;;;;;22.33;13.67;;;;;;;1.58;88.24;96104.09;5042777;28;20421;-70
2021/11/24 05:27:07;;;;;;;17.17;13.17;;;;;;;1.46;88.24;96102.41;5035037;28;20491;-69
2021/11/24 05:29:36;;;;;;;14.53;11.80;;;;;;;1.36;88.67;96100.50;5039276;28;20221;-70
2021/11/24 05:32:05;;;;;;;19.17;11.47;;;;;;;1.30;88.04;96100.16;5039521;28;20237;-70
2021/11/24 05:34:33;;;;;;;18.03;12.17;;;;;;;1.36;88.12;96107.47;5044004;28;20227;-70
2021/11/24 05:37:02;;;;;;;18.33;14.50;;;;;;;1.40;87.05;96107.13;5042140;28;20668;-70
2021/11/24 05:39:32;;;;;;;19.40;12.70;;;;;;;1.32;87.78;96093.88;5036960;28;20210;-70
2021/11/24 05:42:00;;;;;;;28.20;20.00;;;;;;;1.25;87.98;96092.69;5034604;28;20228;-70
2021/11/24 05:44:33;;;;;;;23.00;19.17;;;;;;;1.21;88.15;96093.06;5041141;28;20247;-70
2021/11/24 05:47:06;;;;;;;20.93;14.73;;;;;;;1.17;88.33;96095.03;5042241;28;20290;-70
2021/11/24 05:49:36;;;;;;;19.77;15.70;;;;;;;1.13;89.20;96086.66;5039770;28;20304;-70
2021/11/24 05:52:05;;;;;;;20.73;16.87;;;;;;;1.24;88.31;96091.03;5047186;28;20608;-70
2021/11/24 05:54:35;;;;;;;23.53;17.57;;;;;;;1.17;88.51;96095.03;5034294;28;20220;-70
2021/11/24 05:57:04;;;;;;;23.53;14.53;;;;;;;1.30;88.60;96087.16;5032378;28;20247;-70
2021/11/24 05:59:34;;;;;;;19.47;13.93;;;;;;;1.25;88.31;96087.50;5036719;28;20221;-70
2021/11/24 06:02:02;;;;;;;20.63;13.47;;;;;;;1.25;88.11;96090.09;5040687;28;20231;-70
2021/11/24 06:04:30;;;;;;;25.63;17.07;;;;;;;1.28;87.84;96084.69;5037337;28;20281;-70
2021/11/24 06:06:58;;;;;;;24.03;17.13;;;;;;;1.16;87.95;96083.00;5040303;28;20222;-70
2021/11/24 06:09:26;;;;;;;23.73;16.07;;;;;;;1.14;88.66;96093.50;5042341;28;20227;-70
2021/11/24 06:11:54;;;;;;;18.70;15.57;;;;;;;1.11;88.46;96093.75;5036033;28;20541;-70
2021/11/24 06:14:22;;;;;;;28.00;19.27;;;;;;;1.00;89.13;96090.28;5037768;28;20566;-70
2021/11/24 06:16:51;;;;;;;21.63;14.50;;;;;;;1.07;89.61;96094.06;5033802;28;20926;-69
2021/11/24 06:19:20;;;;;;;16.40;12.30;;;;;;;1.13;89.08;96098.81;5034818;28;20215;-69
2021/11/24 06:21:48;;;;;;;20.30;15.93;;;;;;;1.13;88.91;96101.41;5038237;28;20490;-69
2021/11/24 06:24:16;;;;;;;20.87;14.97;;;;;;;1.10;88.26;96094.69;5032253;28;20304;-69
2021/11/24 06:26:44;;;;;;;24.77;18.03;;;;;;;1.08;87.99;96098.31;5033237;28;20311;-69
2021/11/24 06:29:12;;;;;;;17.60;13.67;;;;;;;1.05;88.46;96102.00;5030255;28;20258;-69
2021/11/24 06:31:41;;;;;;;18.47;13.70;;;;;;;0.96;88.69;96107.06;5030002;28;20517;-69
2021/11/24 06:34:10;;;;;;;17.63;13.70;;;;;;;1.06;88.42;96102.81;5035544;28;20259;-69
2021/11/24 06:36:55;;;;;;;20.43;13.03;;;;;;;0.93;88.42;96107.28;5030476;28;20460;-69
2021/11/24 06:39:24;;;;;;;17.93;13.73;;;;;;;0.92;88.37;96095.25;5027132;28;20252;-69
2021/11/24 06:41:54;;;;;;;19.37;13.97;;;;;;;0.96;88.56;96101.84;5049906;28;20540;-69
2021/11/24 06:44:22;;;;;;;22.40;14.53;;;;;;;0.92;88.51;96105.63;5041369;28;20526;-69
2021/11/24 06:46:50;;;;;;;21.27;16.33;;;;;;;0.94;89.56;96111.53;5028949;28;20846;-69
2021/11/24 06:49:20;;;;;;;26.33;16.43;;;;;;;0.90;89.26;96113.53;5028328;28;20565;-69
2021/11/24 06:51:49;;;;;;;22.63;15.33;;;;;;;0.95;88.74;96102.78;5027860;28;20475;-69
2021/11/24 06:54:17;;;;;;;18.87;13.83;;;;;;;0.93;88.63;96094.28;5025175;28;20290;-68
2021/11/24 06:56:45;;;;;;;23.87;15.53;;;;;;;1.00;89.14;96103.25;5028037;28;20579;-69
2021/11/24 06:59:14;;;;;;;24.73;18.70;;;;;;;0.92;88.72;96105.63;5037249;28;20537;-69
2021/11/24 07:01:42;;;;;;;23.70;14.80;;;;;;;1.06;89.50;96108.00;5037307;28;20307;-69
2021/11/24 07:04:10;;;;;;;18.40;13.80;;;;;;;1.10;89.02;96109.47;5025128;28;20236;-69
2021/11/24 07:06:41;;;;;;;26.30;16.80;;;;;;;0.95;88.28;96102.78;5032984;28;20525;-69
2021/11/24 07:09:11;;;;;;;17.70;14.60;;;;;;;0.84;88.98;96106.19;5036729;28;20462;-69
2021/11/24 07:11:40;;;;;;;16.17;13.70;;;;;;;0.79;89.48;96103.91;5036272;28;20304;-69
2021/11/24 07:14:09;;;;;;;23.73;13.40;;;;;;;0.71;89.42;96103.66;5035630;28;20638;-69
2021/11/24 07:16:38;;;;;;;23.80;15.07;;;;;;;0.75;89.30;96099.91;5029963;28;20538;-69
2021/11/24 07:19:07;;;;;;;27.13;16.90;;;;;;;0.71;89.40;96101.06;5039430;28;20458;-68
2021/11/24 07:21:36;;;;;;;23.37;17.40;;;;;;;0.74;89.74;96100.84;5034983;28;21023;-68
2021/11/24 07:24:06;;;;;;;23.97;15.90;;;;;;;0.75;89.93;96093.88;5035063;28;20458;-69
2021/11/24 07:26:34;;;;;;;21.27;18.13;;;;;;;0.73;89.77;96101.78;5028070;28;20489;-69
2021/11/24 07:29:02;;;;;;;23.73;14.70;;;;;;;0.79;89.41;96100.50;5026349;28;20474;-69
2021/11/24 07:31:31;;;;;;;18.40;12.47;;;;;;;0.74;89.55;96100.84;5042502;28;20232;-69
2021/11/24 07:34:18;;;;;;;15.23;12.03;;;;;;;0.84;89.59;96103.59;5041776;28;20499;-69
2021/11/24 07:37:22;;;;;;;13.87;12.23;;;;;;;0.91;88.19;96091.78;5042159;28;20871;-69
2021/11/24 07:40:28;;;;;;;17.77;10.33;;;;;;;0.90;88.61;96102.28;5025597;28;20478;-69
2021/11/24 07:43:32;;;;;;;15.63;12.50;;;;;;;0.98;87.90;96084.38;5026413;28;20990;-68
2021/11/24 07:46:37;;;;;;;15.00;9.93;;;;;;;0.98;87.98;96089.56;5029350;28;21047;-69
2021/11/24 07:49:41;;;;;;;21.17;12.60;;;;;;;0.95;87.97;96095.00;5026910;28;20740;-68
2021/11/24 07:52:45;;;;;;;19.33;10.80;;;;;;;0.99;88.11;96094.66;5024764;28;20475;-69
2021/11/24 07:55:51;;;;;;;14.53;9.57;;;;;;;0.96;88.34;96091.47;5037803;28;20215;-69
2021/11/24 07:58:56;;;;;;;15.50;11.53;;;;;;;1.00;86.63;96093.69;5036279;28;20466;-68
2021/11/24 08:02:00;;;;;;;11.50;10.17;;;;;;;1.00;86.65;96087.69;5034399;28;20460;-69
2021/11/24 08:05:05;;;;;;;14.53;11.70;;;;;;;0.97;87.08;96083.53;5038312;28;20568;-67
2021/11/24 08:08:10;;;;;;;12.70;10.53;;;;;;;0.85;87.54;96094.84;5055734;28;20488;-68
2021/11/24 08:11:16;;;;;;;13.20;11.80;;;;;;;0.82;87.80;96085.53;5040688;28;20573;-69
2021/11/24 08:14:20;;;;;;;14.33;11.40;;;;;;;0.85;87.74;96087.91;5033838;28;20461;-69
2021/11/24 08:17:25;;;;;;;17.83;14.23;;;;;;;0.83;87.68;96079.38;5035790;28;20839;-69
2021/11/24 08:20:29;;;;;;;18.13;13.77;;;;;;;0.83;88.87;96081.16;5036096;28;20455;-69
2021/11/24 08:23:33;;;;;;;23.33;14.50;;;;;;;0.90;88.41;96076.31;5043958;28;20453;-69
2021/11/24 08:26:40;;;;;;;21.00;11.07;;;;;;;0.93;87.86;96070.91;5033415;28;20799;-68
2021/11/24 08:29:44;;;;;;;15.33;10.87;;;;;;;0.95;88.17;96071.63;5039038;28;20553;-69
2021/11/24 08:32:49;;;;;;;13.20;10.80;;;;;;;1.01;89.05;96066.81;5022874;28;20716;-69
2021/11/24 08:35:53;;;;;;;15.47;10.83;;;;;;;1.02;88.60;96060.66;5032760;28;20470;-69
2021/11/24 08:38:57;;;;;;;15.00;11.80;;;;;;;1.09;88.00;96055.78;5031000;28;20446;-69
2021/11/24 08:42:03;;;;;;;18.37;13.90;;;;;;;1.10;88.19;96047.91;5035536;28;20466;-69
2021/11/24 08:45:10;;;;;;;17.10;10.47;;;;;;;1.17;87.84;96050.84;5034101;28;20876;-69
2021/11/24 08:48:14;;;;;;;14.87;11.20;;;;;;;1.20;88.68;96052.41;5044295;28;21010;-69
2021/11/24 08:51:19;;;;;;;17.07;12.20;;;;;;;1.25;88.04;96040.69;5041395;28;20536;-69
2021/11/24 08:54:23;;;;;;;14.07;10.27;;;;;;;1.31;87.33;96040.25;5036870;28;20849;-69
2021/11/24 08:57:29;;;;;;;13.93;10.97;;;;;;;1.23;87.51;96047.78;5041048;28;20466;-69
2021/11/24 09:00:33;;;;;;;15.40;12.10;;;;;;;1.17;88.58;96044.81;5042394;28;20457;-69
2021/11/24 09:03:37;;;;;;;16.37;13.33;;;;;;;1.25;88.75;96034.69;5032077;28;20470;-68
2021/11/24 09:06:42;;;;;;;22.37;14.07;;;;;;;1.26;88.28;96034.56;5036152;28;20657;-69
2021/11/24 09:09:46;;;;;;;14.33;11.43;;;;;;;1.34;88.71;96024.41;5045153;28;20819;-69
2021/11/24 09:12:52;;;;;;;17.73;10.63;;;;;;;1.37;87.91;96029.38;5039447;28;20455;-69
2021/11/24 09:15:56;;;;;;;15.97;11.43;;;;;;;1.45;88.32;96035.72;5040653;28;20224;-69
2021/11/24 09:19:00;;;;;;;15.70;10.60;;;;;;;1.48;88.32;96023.34;5038402;28;20501;-69
2021/11/24 09:22:06;;;;;;;14.87;10.83;;;;;;;1.49;86.83;96018.97;5032829;28;20223;-69
2021/11/24 09:25:13;;;;;;;13.17;11.80;;;;;;;1.53;87.80;96015.16;5039911;28;20224;-68
2021/11/24 09:28:20;;;;;;;13.27;11.07;;;;;;;1.56;86.27;96022.75;5031517;28;20235;-69
2021/11/24 09:31:24;;;;;;;14.13;11.90;;;;;;;1.59;86.33;96012.91;5025428;28;20239;-69
2021/11/24 09:34:28;;;;;;;17.60;11.47;;;;;;;1.60;86.13;96009.38;5042679;28;20225;-69
2021/11/24 09:37:33;;;;;;;19.00;11.10;;;;;;;1.55;86.12;96010.66;5043556;28;20223;-69
2021/11/24 09:40:37;;;;;;;17.90;10.87;;;;;;;1.60;85.80;96011.16;5031213;28;20227;-69
2021/11/24 09:43:48;;;;;;;11.50;8.13;;;;;;;1.61;86.59;96000.63;5032577;28;21001;-69
2021/11/24 09:46:52;;;;;;;17.23;12.90;;;;;;;1.65;86.39;95996.84;5033782;28;20755;-69
2021/11/24 09:49:58;;;;;;;15.97;10.57;;;;;;;1.62;86.81;96002.25;5037477;28;20217;-69
2021/11/24 09:53:04;;;;;;;17.87;11.33;;;;;;;1.64;86.34;95994.34;5027527;28;20224;-69
2021/11/24 09:56:08;;;;;;;13.50;10.33;;;;;;;1.66;87.32;95988.09;5042729;28;20254;-69
2021/11/24 09:59:14;;;;;;;18.83;13.87;;;;;;;1.64;87.06;95983.94;5031350;28;20228;-68
2021/11/24 10:02:19;;;;;;;17.47;14.27;;;;;;;1.67;87.64;95978.50;5039820;28;20243;-69
2021/11/24 10:05:25;;;;;;;13.63;11.17;;;;;;;1.73;86.67;95985.81;5033069;28;20319;-69
2021/11/24 10:08:32;;;;;;;18.77;14.77;;;;;;;1.78;87.31;95975.88;5039741;28;20236;-69
2021/11/24 10:11:36;;;;;;;16.83;12.10;;;;;;;1.66;86.76;95976.84;5025061;28;20228;-69
2021/11/24 10:14:43;;;;;;;18.67;12.77;;;;;;;1.77;87.07;95973.41;5035539;28;20747;-68
2021/11/24 10:17:48;;;;;;;17.33;12.57;;;;;;;1.76;86.95;95962.16;5026395;28;20221;-69
2021/11/24 10:20:56;;;;;;;18.87;12.03;;;;;;;1.74;87.28;95966.66;5031187;28;20434;-68
2021/11/24 10:24:02;;;;;;;16.63;14.87;;;;;;;1.77;87.70;95950.81;5040521;28;20232;-69
2021/11/24 10:27:09;;;;;;;16.80;10.80;;;;;;;1.75;87.29;95950.09;5033494;28;20227;-69
2021/11/24 10:30:26;;;;;;;15.37;11.37;;;;;;;1.68;87.30;95943.75;5024219;28;20612;-69
2021/11/24 10:33:31;;;;;;;15.10;12.23;;;;;;;1.75;87.17;95934.50;5043629;28;20235;-68
2021/11/24 10:36:50;;;;;;;18.80;13.23;;;;;;;1.76;87.37;95928.34;5030896;28;20215;-69
2021/11/24 10:39:58;;;;;;;21.27;12.73;;;;;;;1.61;87.35;95917.38;5024655;28;20616;-69
2021/11/24 10:43:12;;;;;;;17.40;12.23;;;;;;;1.70;86.66;95923.63;5036195;28;20235;-68
2021/11/24 10:46:17;;;;;;;15.50;11.93;;;;;;;1.73;86.96;95923.38;5036919;28;20240;-68
2021/11/24 10:49:33;;;;;;;16.43;11.33;;;;;;;1.74;86.74;95930.25;5032189;28;20226;-69
2021/11/24 10:52:38;;;;;;;15.10;11.40;;;;;;;1.76;87.08;95915.34;5043744;28;20222;-68
2021/11/24 10:55:42;;;;;;;19.93;12.90;;;;;;;1.80;86.81;95914.13;5038090;28;20217;-68
2021/11/24 10:58:47;;;;;;;14.47;12.43;;;;;;;1.80;86.72;95918.50;5035856;28;20224;-68
2021/11/24 11:01:53;;;;;;;14.90;11.07;;;;;;;1.91;86.17;95905.44;5040130;28;20308;-69
2021/11/24 11:05:12;;;;;;;17.67;14.03;;;;;;;1.95;86.53;95894.69;5037344;28;20219;-69
2021/11/24 11:08:17;;;;;;;13.70;11.70;;;;;;;1.97;86.98;95897.97;5044108;28;20616;-69
2021/11/24 11:11:28;;;;;;;16.23;12.23;;;;;;;1.82;87.11;95894.00;5032189;28;20730;-69
2021/11/24 11:14:32;;;;;;;13.60;10.63;;;;;;;1.89;86.37;95884.75;5047842;28;20601;-69
2021/11/24 11:17:48;;;;;;;14.67;11.60;;;;;;;1.93;86.30;95875.75;5028488;28;20273;-68
2021/11/24 11:20:54;;;;;;;13.83;10.40;;;;;;;2.06;86.62;95874.75;5030130;28;20218;-69
2021/11/24 11:24:07;;;;;;;14.03;11.80;;;;;;;2.13;86.37;95875.91;5034054;28;20522;-69
2021/11/24 11:26:35;;;;;;;17.50;12.77;;;;;;;2.14;86.08;95872.34;5040203;28;20744;-69
2021/11/24 11:29:04;;;;;;;18.50;13.43;;;;;;;2.09;86.79;95869.28;5032650;28;20219;-69
2021/11/24 11:31:32;;;;;;;14.40;12.80;;;;;;;2.09;86.26;95859.69;5038771;28;22235;-69
2021/11/24 11:34:03;;;;;;;18.37;12.73;;;;;;;2.09;86.76;95858.88;5032940;28;20576;-69
2021/11/24 11:36:31;;;;;;;12.87;10.63;;;;;;;2.05;86.66;95862.69;5041884;28;20233;-69
2021/11/24 11:39:00;;;;;;;14.43;11.97;;;;;;;1.83;87.05;95854.06;5044428;28;20229;-69
2021/11/24 11:41:32;;;;;;;13.80;10.63;;;;;;;1.91;87.28;95851.63;5044179;28;20241;-69
2021/11/24 11:44:22;;;;;;;16.00;12.33;;;;;;;1.90;86.90;95851.75;5042952;28;20303;-69
2021/11/24 11:47:11;;;;;;;16.40;13.40;;;;;;;1.95;86.98;95842.63;5044988;28;20240;-69
2021/11/24 11:49:42;;;;;;;13.47;9.27;;;;;;;1.91;87.58;95830.81;5043719;28;20245;-69
2021/11/24 11:52:12;;;;;;;13.27;10.93;;;;;;;1.85;87.38;95836.53;5041195;28;20229;-69
2021/11/24 11:54:40;;;;;;;12.33;10.90;;;;;;;1.87;87.03;95839.00;5040136;28;20603;-69
2021/11/24 11:57:17;;;;;;;14.23;11.40;;;;;;;1.82;87.53;95828.97;5037442;28;20229;-69
2021/11/24 12:00:01;;;;;;;13.63;11.23;;;;;;;1.82;88.07;95828.13;5035211;28;20269;-69
2021/11/24 12:02:30;;;;;;;12.27;9.53;;;;;;;1.93;87.86;95813.31;5039115;28;20238;-69
2021/11/24 12:05:04;;;;;;;12.73;10.23;;;;;;;1.94;86.14;95809.75;5035051;28;20612;-69
2021/11/24 12:07:32;;;;;;;12.70;10.10;;;;;;;1.92;86.63;95801.25;5034429;28;20230;-69
2021/11/24 12:10:05;;;;;;;10.10;8.70;;;;;;;1.92;86.49;95806.47;5036355;28;20229;-69
2021/11/24 12:12:34;;;;;;;8.63;7.90;;;;;;;1.94;86.50;95804.53;5041228;28;20229;-69
2021/11/24 12:15:15;;;;;;;10.03;9.07;;;;;;;1.95;86.19;95795.78;5040105;28;20226;-68
2021/11/24 12:18:01;;;;;;;9.03;8.10;;;;;;;1.99;86.02;95786.75;5032241;28;20643;-68
2021/11/24 12:20:45;;;;;;;13.00;11.63;;;;;;;1.95;84.98;95785.38;5037419;28;20705;-69
2021/11/24 12:23:31;;;;;;;12.67;9.60;;;;;;;1.95;85.59;95789.75;5044210;28;20540;-68
2021/11/24 12:26:02;;;;;;;11.13;10.03;;;;;;;1.88;84.77;95779.03;5044407;28;20221;-69